Wednesday, November 26, 2014, 4:18 PM EST

KSHD, Staunton / Shenandoah

Location: Weyers Cave, VA, United States Lat: 38.267
Local Time: 4:18 PM EST (21:18 GMT) Lon: -78.9
Time Zone: US/Eastern Elev: 1200 ft

Show me the last for .
Show Decoded

2014-11-26 15:55 METAR KSHD 262055Z AUTO RMK AO2 6//// PWINO PNO TSNO =
2014-11-26 15:35 METAR KSHD 262035Z AUTO RMK AO2 PWINO PNO TSNO =
2014-11-26 15:15 METAR KSHD 262015Z AUTO RMK AO2 PWINO PNO TSNO =
2014-11-26 14:55 METAR KSHD 261955Z AUTO RMK AO2 PWINO PNO TSNO =
2014-11-26 14:35 METAR KSHD 261935Z AUTO RMK AO2 PWINO PNO TSNO =
2014-11-26 14:15 METAR KSHD 261915Z AUTO RMK AO2 PWINO PNO TSNO =
2014-11-26 13:55 METAR KSHD 261855Z AUTO RMK AO2 PWINO PNO TSNO =
2014-11-26 13:35 METAR KSHD 261835Z AUTO RMK AO2 PWINO PNO TSNO =
2014-11-26 13:15 METAR KSHD 261815Z AUTO RMK AO2 PWINO PNO TSNO =
2014-11-26 12:55 METAR KSHD 261755Z AUTO RMK AO2 6//// PWINO PNO TSNO =
2014-11-26 12:35 METAR KSHD 261735Z AUTO RMK AO2 PWINO PNO TSNO =
2014-11-26 12:15 METAR KSHD 261715Z AUTO 00000KT 1SM -SN OVC005 01/00 A2996 RMK AO2 T00080000 =
2014-11-26 11:55 METAR KSHD 261655Z AUTO 00000KT 3/4SM -SN OVC005 01/00 A2999 RMK AO2 T00080000 =
2014-11-26 11:35 METAR KSHD 261635Z AUTO 00000KT 3/4SM -SN OVC005 01/00 A3000 RMK AO2 T00070000 =
2014-11-26 11:15 METAR KSHD 261615Z AUTO 00000KT 3/4SM -SN BKN005 OVC010 01/00 A3003 RMK AO2
                 T00070000 =
2014-11-26 10:55 METAR KSHD 261555Z AUTO 33003KT 1SM -SN BKN005 OVC010 01/00 A3003 RMK AO2
                 T00070000 =
2014-11-26 10:35 METAR KSHD 261535Z AUTO 00000KT 3/4SM -SN OVC003 01/00 A3005 RMK AO2 T00080000 =
2014-11-26 10:15 METAR KSHD 261515Z AUTO 00000KT 1SM -SN OVC003 01/00 A3003 RMK AO2 T00070000 =
2014-11-26 09:55 METAR KSHD 261455Z AUTO 00000KT 1/2SM SN OVC003 01/00 A3005 RMK AO2 60003
                 T00060000 =
2014-11-26 09:35 METAR KSHD 261435Z AUTO 00000KT 3/4SM -SN OVC007 01/00 A3003 RMK AO2 T00060000 =
2014-11-26 09:15 METAR KSHD 261415Z AUTO 00000KT 1/4SM SN OVC007 01/00 A3006 RMK AO2 T00060000 =
2014-11-26 08:55 METAR KSHD 261355Z AUTO 00000KT 1/2SM -SN OVC005 01/00 A3007 RMK AO2 T00051001 =
2014-11-26 08:35 METAR KSHD 261335Z AUTO 00000KT 1/2SM -SN OVC003 01/00 A3007 RMK AO2 T00061001 =
2014-11-26 08:15 METAR KSHD 261315Z AUTO 05003KT 1/2SM SN OVC003 01/00 A3002 RMK AO2 T00051002 =
2014-11-26 07:55 METAR KSHD 261255Z AUTO 00000KT 3/4SM SN OVC005 01/00 A3007 RMK AO2 P0003
                 T00061002 =
2014-11-26 07:35 METAR KSHD 261235Z AUTO 03004KT 1SM SN OVC005 01/00 A3004 RMK AO2 P0003
                 T00071002 =
2014-11-26 07:15 METAR KSHD 261215Z AUTO 01005KT 2 1/2SM -SN OVC007 01/00 A3004 RMK AO2 P0003
                 T00120000 =
2014-11-26 06:55 METAR KSHD 261155Z AUTO 34004KT 4SM RA OVC009 02/01 A3007 RMK AO2 P0017 60048
                 70048 T00240008 10050 20024 =
2014-11-26 06:35 METAR KSHD 261135Z AUTO 01006KT 4SM RA OVC009 03/02 A3004 RMK AO2 P0011
                 T00300015 =
2014-11-26 06:15 METAR KSHD 261115Z AUTO 35006KT 5SM RA SCT011 OVC029 04/02 A3006 RMK AO2 P0005
                 T00350018 =
2014-11-26 05:55 METAR KSHD 261055Z AUTO 01007KT 4SM RA SCT011 SCT020 OVC029 04/02 A3005 RMK AO2
                 P0018 T00360020 =
2014-11-26 05:35 METAR KSHD 261035Z AUTO 02006KT 5SM RA SCT022 OVC031 04/02 A3006 RMK AO2 P0012
                 T00370020 =
2014-11-26 05:15 METAR KSHD 261015Z AUTO 04005KT 4SM RA OVC024 04/02 A3007 RMK AO2 P0005
                 T00400020 =
2014-11-26 04:55 METAR KSHD 260955Z AUTO 05008KT 7SM RA OVC028 04/02 A3006 RMK AO2 P0008
                 T00440021 =
2014-11-26 04:35 METAR KSHD 260935Z AUTO 03004KT 7SM RA BKN030 OVC037 05/02 A3005 RMK AO2 P0005
                 T00450021 =
2014-11-26 04:15 METAR KSHD 260915Z AUTO 35003KT 10SM RA BKN037 OVC042 05/02 A3003 RMK AO2 P0002
                 T00460020 =
2014-11-26 03:55 METAR KSHD 260855Z AUTO 35004KT 10SM -RA OVC041 05/02 A3005 RMK AO2 P0004 60005
                 T00470016 =
2014-11-26 03:35 METAR KSHD 260835Z AUTO 34003KT 10SM -RA OVC041 05/02 A3007 RMK AO2 P0003
                 T00480017 =
2014-11-26 03:15 METAR KSHD 260815Z AUTO 34003KT 10SM -RA OVC041 05/02 A3008 RMK AO2 P0001
                 T00480017 =
2014-11-26 02:55 METAR KSHD 260755Z AUTO 35003KT 10SM -RA OVC043 05/02 A3009 RMK AO2 P0001
                 T00500015 =
2014-11-26 02:35 METAR KSHD 260735Z AUTO 30004KT 10SM RA SCT037 OVC043 05/02 A3009 RMK AO2
                 T00450016 =
2014-11-26 02:15 METAR KSHD 260715Z AUTO 00000KT 10SM -DZ SCT040 OVC060 05/01 A3010 RMK AO2
                 T00450005 =
2014-11-26 01:55 METAR KSHD 260655Z AUTO 00000KT 10SM UP SCT044 BKN060 OVC070 04/01 A3009 RMK AO2
                 T00440005 =
2014-11-26 01:15 METAR KSHD 260615Z AUTO 00000KT 10SM OVC090 05/00 A3011 RMK AO2 T00450000 =
2014-11-26 00:55 METAR KSHD 260555Z AUTO 07003KT 10SM BKN100 OVC120 05/00 A3013 RMK AO2 T00450003
                 10053 20035 401400035 =
2014-11-26 00:35 METAR KSHD 260535Z AUTO 00000KT 10SM BKN120 05/00 A3013 RMK AO2 T00450003 =
2014-11-26 00:15 METAR KSHD 260515Z AUTO 00000KT 10SM CLR 04/01 A3013 RMK AO2 T00410005 =
2014-11-25 23:55 METAR KSHD 260455Z AUTO 00000KT 10SM CLR 05/00 A3014 RMK AO2 T00460002 =
2014-11-25 23:35 METAR KSHD 260435Z AUTO 00000KT 10SM CLR 05/00 A3014 RMK AO2 T00511003 =
2014-11-25 23:15 METAR KSHD 260415Z AUTO 00000KT 10SM CLR 04/00 A3013 RMK AO2 T00430004 =
2014-11-25 22:55 METAR KSHD 260355Z AUTO 00000KT 10SM CLR 04/00 A3014 RMK AO2 T00420004 =
2014-11-25 22:35 METAR KSHD 260335Z AUTO 00000KT 10SM CLR 04/00 A3013 RMK AO2 T00440002 =
2014-11-25 22:15 METAR KSHD 260315Z AUTO 00000KT 10SM CLR 04/00 A3013 RMK AO2 T00390000 =
2014-11-25 21:55 METAR KSHD 260255Z AUTO 00000KT 10SM CLR 04/00 A3012 RMK AO2 T00431001 =
2014-11-25 21:35 METAR KSHD 260235Z AUTO 00000KT 10SM CLR 04/00 A3011 RMK AO2 T00401001 =
2014-11-25 21:15 METAR KSHD 260215Z AUTO 00000KT 10SM CLR 04/00 A3012 RMK AO2 T00410000 =
2014-11-25 20:55 METAR KSHD 260155Z AUTO 00000KT 10SM CLR 05/00 A3013 RMK AO2 T00470000 =
2014-11-25 20:35 METAR KSHD 260135Z AUTO 00000KT 10SM CLR 04/00 A3013 RMK AO2 T00381005 =
2014-11-25 20:15 METAR KSHD 260115Z AUTO 00000KT 10SM CLR 04/M01 A3011 RMK AO2 T00411008 =
2014-11-25 19:55 METAR KSHD 260055Z AUTO 00000KT 10SM CLR 04/M01 A3012 RMK AO2 T00401012 =
2014-11-25 19:35 METAR KSHD 260035Z AUTO 00000KT 10SM CLR 04/M01 A3010 RMK AO2 T00421014 =
2014-11-25 19:15 METAR KSHD 260015Z AUTO 00000KT 10SM CLR 05/M01 A3012 RMK AO2 T00471015 =
2014-11-25 18:55 METAR KSHD 252355Z AUTO 00000KT 10SM CLR 04/M02 A3010 RMK AO2 T00441016 10138
                 20044 =
2014-11-25 18:35 METAR KSHD 252335Z AUTO 00000KT 10SM CLR 06/M02 A3009 RMK AO2 T00581019 =
2014-11-25 18:15 METAR KSHD 252315Z AUTO 00000KT 10SM CLR 07/M03 A3009 RMK AO2 T00701027 =
2014-11-25 17:55 METAR KSHD 252255Z AUTO 00000KT 10SM CLR 09/M04 A3009 RMK AO2 T00881037 =
2014-11-25 17:35 METAR KSHD 252235Z AUTO 16003KT 10SM CLR 08/M03 A3007 RMK AO2 T00831028 =
2014-11-25 17:15 METAR KSHD 252215Z AUTO 00000KT 10SM CLR 08/M03 A3006 RMK AO2 T00821031 =
2014-11-25 16:55 METAR KSHD 252155Z AUTO 21004KT 10SM CLR 11/M04 A3005 RMK AO2 T01081042 =
2014-11-25 16:35 METAR KSHD 252135Z AUTO 00000KT 10SM CLR 11/M04 A3005 RMK AO2 T01071044 =

Support USWX by starting your Amazon purchase here.